createdAt,value
2019-03-19T19:21:14.755Z,99029.44
2019-03-19T19:23:46.415Z,99033.05
2019-03-19T19:26:19.103Z,99022.40
2019-03-19T19:28:50.978Z,99022.40
2019-03-19T19:31:22.851Z,99006.72
2019-03-19T19:33:54.586Z,99003.75
2019-03-19T19:36:26.100Z,99003.75
2019-03-19T19:38:57.849Z,98993.78
2019-03-19T19:41:29.516Z,98994.81
2019-03-19T19:44:01.611Z,98994.81
2019-03-19T19:46:33.309Z,98987.83
2019-03-19T19:49:05.129Z,98980.09
2019-03-19T19:51:36.726Z,98968.31
2019-03-19T19:54:08.629Z,98968.31
2019-03-19T19:56:40.177Z,98957.75
2019-03-19T19:59:11.858Z,98952.52
2019-03-19T20:01:43.471Z,98947.64
2019-03-19T20:04:15.537Z,98948.87
2019-03-19T20:06:47.321Z,98945.05
2019-03-19T20:09:19.010Z,98945.05
2019-03-19T20:11:50.766Z,98949.64
2019-03-19T20:14:22.479Z,98957.13
2019-03-19T20:16:54.383Z,98957.13
2019-03-19T20:19:25.970Z,98948.36
2019-03-19T20:21:57.444Z,98948.36
2019-03-19T20:24:29.385Z,98939.33
2019-03-19T20:27:01.153Z,98934.45
2019-03-19T20:29:33.158Z,98934.45
2019-03-19T20:32:04.866Z,98934.45
2019-03-19T20:34:36.902Z,98925.52
2019-03-19T20:37:08.398Z,98925.52
2019-03-19T20:39:39.783Z,98921.13
2019-03-19T20:42:11.560Z,98924.84
2019-03-19T20:44:43.120Z,98924.84
2019-03-19T20:47:14.619Z,98927.45
2019-03-19T20:49:47.837Z,98927.45
2019-03-19T20:52:19.482Z,98924.80
2019-03-19T20:54:52.416Z,98902.54
2019-03-19T20:57:24.036Z,98902.54
2019-03-19T20:59:55.644Z,98918.02
2019-03-19T21:02:27.438Z,98918.02
2019-03-19T21:04:59.106Z,98909.60
2019-03-19T21:07:31.055Z,98898.30
2019-03-19T21:10:02.994Z,98903.17
2019-03-19T21:12:34.917Z,98903.17
2019-03-19T21:15:07.881Z,98897.74
2019-03-19T21:17:39.884Z,98900.94
2019-03-19T21:20:11.634Z,98891.27
2019-03-19T21:22:43.631Z,98880.06
2019-03-19T21:25:15.640Z,98880.06
2019-03-19T21:27:47.374Z,98882.71
2019-03-19T21:30:19.290Z,98879.42
2019-03-19T21:32:51.025Z,98868.52
2019-03-19T21:35:23.044Z,98869.63
2019-03-19T21:37:54.696Z,98869.63
2019-03-19T21:40:26.486Z,98867.35
2019-03-19T21:42:58.442Z,98871.75
2019-03-19T21:45:30.358Z,98883.73
2019-03-19T21:48:02.189Z,98863.69
2019-03-19T21:50:33.898Z,98851.41
2019-03-19T21:53:05.487Z,98851.41
2019-03-19T21:55:37.143Z,98854.45
2019-03-19T21:58:08.892Z,98856.64
2019-03-19T22:00:40.921Z,98857.76
2019-03-19T22:03:12.461Z,98857.76
2019-03-19T22:05:43.981Z,98846.97
2019-03-19T22:08:16.226Z,98846.97
2019-03-19T22:10:47.956Z,98850.53
2019-03-19T22:13:19.589Z,98850.53
2019-03-19T22:15:51.403Z,98845.44
2019-03-19T22:18:23.235Z,98838.49
2019-03-19T22:20:54.927Z,98840.62
2019-03-19T22:23:26.798Z,98840.62
2019-03-19T22:25:58.588Z,98833.61
2019-03-19T22:28:30.138Z,98835.92
2019-03-19T22:31:02.114Z,98835.92
2019-03-19T22:33:33.915Z,98829.92
2019-03-19T22:36:05.572Z,98839.00
2019-03-19T22:38:37.096Z,98839.00
2019-03-19T22:41:08.800Z,98842.27
2019-03-19T22:43:40.557Z,98827.51
2019-03-19T22:46:21.282Z,98827.51
2019-03-19T22:48:46.205Z,98832.06
2019-03-19T22:51:17.952Z,98827.47
2019-03-19T22:53:49.790Z,98829.66
2019-03-19T22:56:21.999Z,98821.77
2019-03-19T22:58:53.975Z,98819.61
2019-03-19T23:01:25.733Z,98819.61
2019-03-19T23:03:57.495Z,98820.63
2019-03-19T23:06:29.381Z,98819.77
2019-03-19T23:09:01.394Z,98821.19
2019-03-19T23:11:34.966Z,98821.19
2019-03-19T23:14:07.025Z,98816.88
2019-03-19T23:16:38.801Z,98809.16
2019-03-19T23:19:10.875Z,98818.55
2019-03-19T23:21:42.715Z,98826.80
2019-03-19T23:24:14.550Z,98826.55
2019-03-19T23:26:46.190Z,98829.28
2019-03-19T23:29:18.325Z,98831.37
2019-03-19T23:31:50.013Z,98831.37
2019-03-19T23:34:21.767Z,98832.89
2019-03-19T23:36:53.775Z,98838.52
2019-03-19T23:39:25.969Z,98838.52
2019-03-19T23:41:57.749Z,98838.39
2019-03-19T23:44:29.562Z,98838.39
2019-03-19T23:47:01.475Z,98849.45
2019-03-19T23:49:33.444Z,98843.70
2019-03-19T23:52:05.101Z,98846.42
2019-03-19T23:54:37.918Z,98858.64
2019-03-19T23:57:09.766Z,98855.78
2019-03-19T23:59:42.387Z,98867.63
